sensor_id;sensor_type;location;lat;lon;timestamp;pressure;altitude;pressure_sealevel;temperature;humidity
49709;BME280;35601;55.902;13.606;2024-02-14T00:00:06;100641.80;;;1.19;89.58
49709;BME280;35601;55.902;13.606;2024-02-14T00:02:30;100636.82;;;0.88;91.15
49709;BME280;35601;55.902;13.606;2024-02-14T00:04:56;100639.23;;;1.05;90.96
49709;BME280;35601;55.902;13.606;2024-02-14T00:07:21;100636.85;;;0.93;91.83
49709;BME280;35601;55.902;13.606;2024-02-14T00:09:47;100641.04;;;0.97;91.38
49709;BME280;35601;55.902;13.606;2024-02-14T00:12:12;100644.16;;;1.09;90.69
49709;BME280;35601;55.902;13.606;2024-02-14T00:14:37;100642.38;;;1.46;90.31
49709;BME280;35601;55.902;13.606;2024-02-14T00:17:02;100639.24;;;1.12;89.96
49709;BME280;35601;55.902;13.606;2024-02-14T00:19:27;100639.01;;;1.28;89.66
49709;BME280;35601;55.902;13.606;2024-02-14T00:21:53;100644.69;;;1.35;90.49
49709;BME280;35601;55.902;13.606;2024-02-14T00:24:18;100643.75;;;1.16;91.17
49709;BME280;35601;55.902;13.606;2024-02-14T00:26:45;100644.64;;;0.97;92.45
49709;BME280;35601;55.902;13.606;2024-02-14T00:29:10;100645.00;;;0.88;93.32
49709;BME280;35601;55.902;13.606;2024-02-14T00:31:35;100650.11;;;0.79;94.33
49709;BME280;35601;55.902;13.606;2024-02-14T00:34:01;100648.04;;;0.70;95.61
49709;BME280;35601;55.902;13.606;2024-02-14T00:36:26;100648.64;;;0.68;96.70
49709;BME280;35601;55.902;13.606;2024-02-14T00:38:51;100646.85;;;0.76;97.39
49709;BME280;35601;55.902;13.606;2024-02-14T00:41:16;100645.33;;;1.00;96.88
49709;BME280;35601;55.902;13.606;2024-02-14T00:43:42;100645.46;;;0.77;95.92
49709;BME280;35601;55.902;13.606;2024-02-14T00:46:08;100646.02;;;1.01;94.64
49709;BME280;35601;55.902;13.606;2024-02-14T00:48:33;100641.77;;;1.15;93.43
49709;BME280;35601;55.902;13.606;2024-02-14T00:50:58;100646.37;;;1.32;92.65
49709;BME280;35601;55.902;13.606;2024-02-14T00:53:24;100648.34;;;1.25;92.01
49709;BME280;35601;55.902;13.606;2024-02-14T00:55:50;100651.96;;;0.98;91.94
49709;BME280;35601;55.902;13.606;2024-02-14T00:58:15;100650.17;;;1.12;92.16
49709;BME280;35601;55.902;13.606;2024-02-14T01:00:40;100647.79;;;0.89;92.60
49709;BME280;35601;55.902;13.606;2024-02-14T01:03:06;100647.65;;;0.82;93.45
49709;BME280;35601;55.902;13.606;2024-02-14T01:05:31;100645.71;;;0.69;93.60
49709;BME280;35601;55.902;13.606;2024-02-14T01:07:57;100646.53;;;0.79;93.68
49709;BME280;35601;55.902;13.606;2024-02-14T01:10:23;100650.13;;;0.96;92.97
49709;BME280;35601;55.902;13.606;2024-02-14T01:12:48;100650.70;;;1.00;92.65
49709;BME280;35601;55.902;13.606;2024-02-14T01:15:13;100650.09;;;1.05;92.08
49709;BME280;35601;55.902;13.606;2024-02-14T01:17:39;100644.85;;;0.82;92.31
49709;BME280;35601;55.902;13.606;2024-02-14T01:20:05;100648.10;;;0.41;93.57
49709;BME280;35601;55.902;13.606;2024-02-14T01:22:29;100641.77;;;0.41;96.06
49709;BME280;35601;55.902;13.606;2024-02-14T01:24:55;100640.44;;;0.34;96.85
49709;BME280;35601;55.902;13.606;2024-02-14T01:27:20;100644.87;;;0.40;97.42
49709;BME280;35601;55.902;13.606;2024-02-14T01:29:46;100645.29;;;0.22;97.66
49709;BME280;35601;55.902;13.606;2024-02-14T01:32:12;100642.47;;;-0.02;97.79
49709;BME280;35601;55.902;13.606;2024-02-14T01:34:37;100639.64;;;0.25;97.66
49709;BME280;35601;55.902;13.606;2024-02-14T01:37:03;100641.97;;;0.16;97.45
49709;BME280;35601;55.902;13.606;2024-02-14T01:39:28;100632.97;;;0.36;96.50
49709;BME280;35601;55.902;13.606;2024-02-14T01:41:53;100627.68;;;0.68;95.78
49709;BME280;35601;55.902;13.606;2024-02-14T01:44:19;100622.31;;;0.45;95.80
49709;BME280;35601;55.902;13.606;2024-02-14T01:46:45;100628.45;;;0.36;95.05
49709;BME280;35601;55.902;13.606;2024-02-14T01:49:11;100629.41;;;0.40;94.18
49709;BME280;35601;55.902;13.606;2024-02-14T01:51:36;100623.90;;;0.76;92.89
49709;BME280;35601;55.902;13.606;2024-02-14T01:54:01;100614.97;;;0.48;92.42
49709;BME280;35601;55.902;13.606;2024-02-14T01:56:26;100624.49;;;0.64;91.46
49709;BME280;35601;55.902;13.606;2024-02-14T01:58:52;100626.46;;;0.83;90.35
49709;BME280;35601;55.902;13.606;2024-02-14T02:01:18;100620.94;;;1.04;89.68
49709;BME280;35601;55.902;13.606;2024-02-14T02:03:43;100614.00;;;0.93;88.68
49709;BME280;35601;55.902;13.606;2024-02-14T02:06:09;100613.56;;;0.82;87.71
49709;BME280;35601;55.902;13.606;2024-02-14T02:08:35;100612.88;;;0.78;87.74
49709;BME280;35601;55.902;13.606;2024-02-14T02:11:00;100607.67;;;0.77;88.23
49709;BME280;35601;55.902;13.606;2024-02-14T02:13:25;100604.05;;;0.79;88.50
49709;BME280;35601;55.902;13.606;2024-02-14T02:15:51;100600.14;;;0.77;88.97
49709;BME280;35601;55.902;13.606;2024-02-14T02:18:17;100602.99;;;0.77;88.47
49709;BME280;35601;55.902;13.606;2024-02-14T02:20:42;100600.47;;;0.75;88.27
49709;BME280;35601;55.902;13.606;2024-02-14T02:23:10;100601.18;;;0.72;88.62
49709;BME280;35601;55.902;13.606;2024-02-14T02:25:33;100597.01;;;0.65;89.29
49709;BME280;35601;55.902;13.606;2024-02-14T02:27:58;100597.52;;;0.57;90.13
49709;BME280;35601;55.902;13.606;2024-02-14T02:30:24;100608.35;;;0.51;90.89
49709;BME280;35601;55.902;13.606;2024-02-14T02:32:49;100612.00;;;0.68;90.79
49709;BME280;35601;55.902;13.606;2024-02-14T02:35:15;100609.56;;;0.33;91.31
49709;BME280;35601;55.902;13.606;2024-02-14T02:37:40;100607.80;;;0.53;91.62
49709;BME280;35601;55.902;13.606;2024-02-14T02:40:06;100605.32;;;0.56;92.10
49709;BME280;35601;55.902;13.606;2024-02-14T02:42:30;100601.68;;;0.99;92.67
49709;BME280;35601;55.902;13.606;2024-02-14T02:44:56;100598.27;;;0.66;93.47
49709;BME280;35601;55.902;13.606;2024-02-14T02:47:21;100597.30;;;0.61;93.10
49709;BME280;35601;55.902;13.606;2024-02-14T02:49:46;100598.83;;;0.68;92.57
49709;BME280;35601;55.902;13.606;2024-02-14T02:52:12;100602.99;;;0.77;92.38
49709;BME280;35601;55.902;13.606;2024-02-14T02:54:37;100603.36;;;0.90;92.15
49709;BME280;35601;55.902;13.606;2024-02-14T02:57:02;100602.90;;;0.85;91.56
49709;BME280;35601;55.902;13.606;2024-02-14T02:59:27;100600.46;;;1.01;91.31
49709;BME280;35601;55.902;13.606;2024-02-14T03:01:53;100601.16;;;1.02;91.87
49709;BME280;35601;55.902;13.606;2024-02-14T03:04:18;100601.92;;;0.88;91.78
49709;BME280;35601;55.902;13.606;2024-02-14T03:06:44;100604.69;;;1.05;91.21
49709;BME280;35601;55.902;13.606;2024-02-14T03:09:09;100602.89;;;0.89;91.28
49709;BME280;35601;55.902;13.606;2024-02-14T03:11:35;100605.22;;;1.08;92.08
49709;BME280;35601;55.902;13.606;2024-02-14T03:14:00;100608.46;;;1.18;92.09
49709;BME280;35601;55.902;13.606;2024-02-14T03:16:25;100607.63;;;1.23;91.65
49709;BME280;35601;55.902;13.606;2024-02-14T03:18:51;100610.30;;;1.14;92.08
49709;BME280;35601;55.902;13.606;2024-02-14T03:21:16;100608.71;;;0.98;92.95
49709;BME280;35601;55.902;13.606;2024-02-14T03:23:42;100611.31;;;0.81;93.51
49709;BME280;35601;55.902;13.606;2024-02-14T03:26:07;100611.73;;;0.94;93.92
49709;BME280;35601;55.902;13.606;2024-02-14T03:28:33;100607.93;;;0.77;94.70
49709;BME280;35601;55.902;13.606;2024-02-14T03:30:58;100606.85;;;0.65;95.59
49709;BME280;35601;55.902;13.606;2024-02-14T03:33:24;100609.41;;;0.70;95.73
49709;BME280;35601;55.902;13.606;2024-02-14T03:35:50;100609.92;;;0.97;97.12
49709;BME280;35601;55.902;13.606;2024-02-14T03:38:24;100608.27;;;0.42;97.37
49709;BME280;35601;55.902;13.606;2024-02-14T03:40:40;100605.78;;;0.60;98.46
49709;BME280;35601;55.902;13.606;2024-02-14T03:43:06;100605.16;;;0.50;99.66
49709;BME280;35601;55.902;13.606;2024-02-14T03:45:31;100609.23;;;0.92;99.15
49709;BME280;35601;55.902;13.606;2024-02-14T03:47:57;100609.51;;;0.81;97.78
49709;BME280;35601;55.902;13.606;2024-02-14T03:50:22;100609.05;;;0.74;98.08
49709;BME280;35601;55.902;13.606;2024-02-14T03:52:48;100616.24;;;1.30;97.26
49709;BME280;35601;55.902;13.606;2024-02-14T03:55:13;100616.32;;;1.24;96.00
49709;BME280;35601;55.902;13.606;2024-02-14T03:57:39;100613.07;;;0.94;96.44
49709;BME280;35601;55.902;13.606;2024-02-14T04:00:06;100620.79;;;0.90;96.28
49709;BME280;35601;55.902;13.606;2024-02-14T04:02:31;100623.33;;;1.13;95.59
49709;BME280;35601;55.902;13.606;2024-02-14T04:04:56;100625.60;;;1.21;94.68
49709;BME280;35601;55.902;13.606;2024-02-14T04:07:21;100622.85;;;1.36;94.71
49709;BME280;35601;55.902;13.606;2024-02-14T04:09:47;100622.28;;;1.05;94.30
49709;BME280;35601;55.902;13.606;2024-02-14T04:12:12;100621.46;;;1.21;93.87
49709;BME280;35601;55.902;13.606;2024-02-14T04:14:38;100621.39;;;1.14;94.66
49709;BME280;35601;55.902;13.606;2024-02-14T04:17:04;100618.36;;;0.80;94.68
49709;BME280;35601;55.902;13.606;2024-02-14T04:19:29;100619.02;;;1.02;95.04
49709;BME280;35601;55.902;13.606;2024-02-14T04:21:54;100618.36;;;0.78;96.46
49709;BME280;35601;55.902;13.606;2024-02-14T04:24:21;100619.89;;;0.98;96.09
49709;BME280;35601;55.902;13.606;2024-02-14T04:26:44;100622.06;;;1.08;95.48
49709;BME280;35601;55.902;13.606;2024-02-14T04:29:10;100621.02;;;0.86;95.51
49709;BME280;35601;55.902;13.606;2024-02-14T04:31:35;100625.13;;;1.06;95.61
49709;BME280;35601;55.902;13.606;2024-02-14T04:34:01;100625.87;;;1.69;94.62
49709;BME280;35601;55.902;13.606;2024-02-14T04:36:26;100627.64;;;1.23;94.56
49709;BME280;35601;55.902;13.606;2024-02-14T04:38:51;100624.92;;;1.29;94.09
49709;BME280;35601;55.902;13.606;2024-02-14T04:41:16;100627.81;;;1.32;94.18
49709;BME280;35601;55.902;13.606;2024-02-14T04:43:43;100625.00;;;1.12;94.65
49709;BME280;35601;55.902;13.606;2024-02-14T04:46:08;100622.54;;;1.19;94.61
49709;BME280;35601;55.902;13.606;2024-02-14T04:48:34;100620.81;;;1.10;94.79
49709;BME280;35601;55.902;13.606;2024-02-14T04:50:59;100618.09;;;1.28;94.58
49709;BME280;35601;55.902;13.606;2024-02-14T04:53:25;100618.03;;;1.16;94.01
49709;BME280;35601;55.902;13.606;2024-02-14T04:55:50;100612.84;;;0.99;94.75
49709;BME280;35601;55.902;13.606;2024-02-14T04:58:16;100611.54;;;1.02;95.42
49709;BME280;35601;55.902;13.606;2024-02-14T05:00:41;100607.94;;;0.61;97.49
49709;BME280;35601;55.902;13.606;2024-02-14T05:03:07;100612.14;;;1.11;96.54
49709;BME280;35601;55.902;13.606;2024-02-14T05:05:32;100610.28;;;1.06;97.11
49709;BME280;35601;55.902;13.606;2024-02-14T05:07:58;100611.62;;;1.31;96.47
49709;BME280;35601;55.902;13.606;2024-02-14T05:10:23;100608.62;;;1.12;97.75
49709;BME280;35601;55.902;13.606;2024-02-14T05:12:49;100610.72;;;0.78;97.59
49709;BME280;35601;55.902;13.606;2024-02-14T05:15:15;100617.48;;;0.96;96.63
49709;BME280;35601;55.902;13.606;2024-02-14T05:17:42;100617.30;;;1.13;95.67
49709;BME280;35601;55.902;13.606;2024-02-14T05:20:07;100615.85;;;1.01;95.50
49709;BME280;35601;55.902;13.606;2024-02-14T05:22:31;100617.44;;;0.94;95.97
49709;BME280;35601;55.902;13.606;2024-02-14T05:24:57;100617.70;;;0.95;95.87
49709;BME280;35601;55.902;13.606;2024-02-14T05:27:23;100618.34;;;0.83;95.93
49709;BME280;35601;55.902;13.606;2024-02-14T05:29:48;100620.67;;;0.87;96.47
49709;BME280;35601;55.902;13.606;2024-02-14T05:32:13;100617.44;;;0.65;97.37
49709;BME280;35601;55.902;13.606;2024-02-14T05:34:39;100619.16;;;0.88;97.52
49709;BME280;35601;55.902;13.606;2024-02-14T05:37:04;100617.21;;;0.54;97.68
49709;BME280;35601;55.902;13.606;2024-02-14T05:39:30;100617.30;;;0.84;97.88
49709;BME280;35601;55.902;13.606;2024-02-14T05:41:55;100619.79;;;0.78;97.89
49709;BME280;35601;55.902;13.606;2024-02-14T05:44:21;100619.04;;;1.30;97.03
49709;BME280;35601;55.902;13.606;2024-02-14T05:46:47;100622.83;;;1.15;96.38
49709;BME280;35601;55.902;13.606;2024-02-14T05:49:12;100619.52;;;0.85;95.89
49709;BME280;35601;55.902;13.606;2024-02-14T05:51:38;100617.47;;;-0.10;96.02
49709;BME280;35601;55.902;13.606;2024-02-14T05:54:03;100623.80;;;0.91;95.13
49709;BME280;35601;55.902;13.606;2024-02-14T05:56:28;100622.81;;;0.85;94.96
49709;BME280;35601;55.902;13.606;2024-02-14T05:58:54;100624.76;;;1.17;94.63
49709;BME280;35601;55.902;13.606;2024-02-14T06:01:20;100629.29;;;1.37;94.16
49709;BME280;35601;55.902;13.606;2024-02-14T06:03:45;100631.44;;;1.26;93.77
49709;BME280;35601;55.902;13.606;2024-02-14T06:06:11;100629.50;;;1.02;93.80
49709;BME280;35601;55.902;13.606;2024-02-14T06:08:36;100630.35;;;0.92;94.60
49709;BME280;35601;55.902;13.606;2024-02-14T06:11:02;100631.21;;;1.19;94.85
49709;BME280;35601;55.902;13.606;2024-02-14T06:13:27;100630.15;;;1.26;94.03
49709;BME280;35601;55.902;13.606;2024-02-14T06:15:53;100633.87;;;1.13;94.24
49709;BME280;35601;55.902;13.606;2024-02-14T06:18:18;100631.29;;;0.86;95.17
49709;BME280;35601;55.902;13.606;2024-02-14T06:20:43;100629.01;;;1.10;95.85
49709;BME280;35601;55.902;13.606;2024-02-14T06:23:09;100632.04;;;0.55;96.86
49709;BME280;35601;55.902;13.606;2024-02-14T06:25:34;100641.16;;;0.94;97.49
49709;BME280;35601;55.902;13.606;2024-02-14T06:27:59;100637.39;;;0.65;97.08
49709;BME280;35601;55.902;13.606;2024-02-14T06:30:25;100638.53;;;1.09;96.84
49709;BME280;35601;55.902;13.606;2024-02-14T06:32:50;100641.06;;;0.82;96.54
49709;BME280;35601;55.902;13.606;2024-02-14T06:35:15;100645.95;;;0.89;97.30
49709;BME280;35601;55.902;13.606;2024-02-14T06:37:41;100647.77;;;0.92;97.83
49709;BME280;35601;55.902;13.606;2024-02-14T06:40:07;100644.45;;;1.06;96.88
49709;BME280;35601;55.902;13.606;2024-02-14T06:42:31;100647.10;;;1.02;96.73
49709;BME280;35601;55.902;13.606;2024-02-14T06:44:57;100642.11;;;0.67;96.80
49709;BME280;35601;55.902;13.606;2024-02-14T06:47:22;100645.41;;;1.26;96.48
49709;BME280;35601;55.902;13.606;2024-02-14T06:49:47;100652.62;;;0.90;95.49
49709;BME280;35601;55.902;13.606;2024-02-14T06:52:12;100654.42;;;0.84;96.07
49709;BME280;35601;55.902;13.606;2024-02-14T06:54:38;100658.04;;;0.79;95.68
49709;BME280;35601;55.902;13.606;2024-02-14T06:57:04;100659.10;;;0.83;95.51
49709;BME280;35601;55.902;13.606;2024-02-14T06:59:29;100658.33;;;1.20;95.90
49709;BME280;35601;55.902;13.606;2024-02-14T07:01:55;100661.07;;;0.73;96.12
49709;BME280;35601;55.902;13.606;2024-02-14T07:04:21;100665.19;;;1.42;95.43
49709;BME280;35601;55.902;13.606;2024-02-14T07:06:46;100669.07;;;1.06;94.92
49709;BME280;35601;55.902;13.606;2024-02-14T07:09:11;100667.09;;;0.89;94.96
49709;BME280;35601;55.902;13.606;2024-02-14T07:11:37;100660.84;;;0.93;94.92
49709;BME280;35601;55.902;13.606;2024-02-14T07:14:02;100660.69;;;0.98;95.58
49709;BME280;35601;55.902;13.606;2024-02-14T07:16:28;100665.26;;;1.05;96.08
49709;BME280;35601;55.902;13.606;2024-02-14T07:18:53;100665.13;;;0.64;96.77
49709;BME280;35601;55.902;13.606;2024-02-14T07:21:18;100665.61;;;0.64;96.43
49709;BME280;35601;55.902;13.606;2024-02-14T07:23:44;100667.07;;;1.12;97.20
49709;BME280;35601;55.902;13.606;2024-02-14T07:26:10;100670.27;;;0.75;96.86
49709;BME280;35601;55.902;13.606;2024-02-14T07:28:35;100673.47;;;0.67;98.02
49709;BME280;35601;55.902;13.606;2024-02-14T07:31:01;100675.00;;;1.01;97.95
49709;BME280;35601;55.902;13.606;2024-02-14T07:33:26;100674.54;;;0.69;97.78
49709;BME280;35601;55.902;13.606;2024-02-14T07:35:52;100674.53;;;0.74;97.74
49709;BME280;35601;55.902;13.606;2024-02-14T07:38:18;100679.84;;;1.02;97.82
49709;BME280;35601;55.902;13.606;2024-02-14T07:40:43;100676.83;;;0.70;97.19
49709;BME280;35601;55.902;13.606;2024-02-14T07:43:08;100674.44;;;0.80;96.51
49709;BME280;35601;55.902;13.606;2024-02-14T07:45:33;100676.08;;;0.95;96.65
49709;BME280;35601;55.902;13.606;2024-02-14T07:47:59;100677.13;;;0.62;97.19
49709;BME280;35601;55.902;13.606;2024-02-14T07:50:24;100679.69;;;0.84;96.76
49709;BME280;35601;55.902;13.606;2024-02-14T07:52:49;100680.12;;;1.00;96.11
49709;BME280;35601;55.902;13.606;2024-02-14T07:55:15;100678.47;;;0.95;95.50
49709;BME280;35601;55.902;13.606;2024-02-14T07:57:41;100678.85;;;0.96;96.02
49709;BME280;35601;55.902;13.606;2024-02-14T08:00:07;100674.19;;;1.04;95.88
49709;BME280;35601;55.902;13.606;2024-02-14T08:02:32;100676.89;;;1.49;96.05
49709;BME280;35601;55.902;13.606;2024-02-14T08:04:57;100678.59;;;0.98;95.22
49709;BME280;35601;55.902;13.606;2024-02-14T08:07:23;100684.09;;;1.08;94.71
49709;BME280;35601;55.902;13.606;2024-02-14T08:09:48;100686.81;;;1.13;94.50
49709;BME280;35601;55.902;13.606;2024-02-14T08:12:13;100690.22;;;1.22;94.19
49709;BME280;35601;55.902;13.606;2024-02-14T08:14:39;100691.98;;;1.02;93.97
49709;BME280;35601;55.902;13.606;2024-02-14T08:17:04;100689.78;;;1.01;94.07
49709;BME280;35601;55.902;13.606;2024-02-14T08:19:29;100689.31;;;1.44;94.21
49709;BME280;35601;55.902;13.606;2024-02-14T08:21:54;100684.75;;;0.90;95.42
49709;BME280;35601;55.902;13.606;2024-02-14T08:24:19;100683.12;;;1.19;95.71
49709;BME280;35601;55.902;13.606;2024-02-14T08:26:45;100687.67;;;1.38;95.49
49709;BME280;35601;55.902;13.606;2024-02-14T08:29:11;100691.19;;;1.46;95.12
49709;BME280;35601;55.902;13.606;2024-02-14T08:31:36;100691.88;;;1.24;95.23
49709;BME280;35601;55.902;13.606;2024-02-14T08:34:02;100695.62;;;1.53;95.20
49709;BME280;35601;55.902;13.606;2024-02-14T08:36:27;100696.80;;;1.55;95.65
49709;BME280;35601;55.902;13.606;2024-02-14T08:38:53;100694.41;;;1.23;95.34
49709;BME280;35601;55.902;13.606;2024-02-14T08:41:19;100694.63;;;1.23;95.80
49709;BME280;35601;55.902;13.606;2024-02-14T08:43:44;100695.49;;;1.46;95.98
49709;BME280;35601;55.902;13.606;2024-02-14T08:46:10;100694.46;;;1.36;96.26
49709;BME280;35601;55.902;13.606;2024-02-14T08:48:35;100695.05;;;1.22;97.25
49709;BME280;35601;55.902;13.606;2024-02-14T08:51:00;100698.86;;;1.28;96.89
49709;BME280;35601;55.902;13.606;2024-02-14T08:53:26;100696.27;;;1.53;96.60
49709;BME280;35601;55.902;13.606;2024-02-14T08:55:50;100695.31;;;1.50;95.88
49709;BME280;35601;55.902;13.606;2024-02-14T08:58:16;100695.45;;;1.79;95.41
49709;BME280;35601;55.902;13.606;2024-02-14T09:00:41;100692.59;;;1.52;95.33
49709;BME280;35601;55.902;13.606;2024-02-14T09:03:06;100691.83;;;1.78;94.31
49709;BME280;35601;55.902;13.606;2024-02-14T09:05:32;100690.87;;;1.71;93.79
49709;BME280;35601;55.902;13.606;2024-02-14T09:07:58;100694.91;;;1.75;93.54
49709;BME280;35601;55.902;13.606;2024-02-14T09:10:23;100692.47;;;1.80;93.99
49709;BME280;35601;55.902;13.606;2024-02-14T09:12:49;100690.43;;;1.97;93.89
49709;BME280;35601;55.902;13.606;2024-02-14T09:15:14;100692.90;;;1.93;93.01
49709;BME280;35601;55.902;13.606;2024-02-14T09:17:39;100694.00;;;1.98;92.43
49709;BME280;35601;55.902;13.606;2024-02-14T09:20:05;100692.40;;;2.04;92.37
49709;BME280;35601;55.902;13.606;2024-02-14T09:22:29;100690.23;;;2.14;91.89
49709;BME280;35601;55.902;13.606;2024-02-14T09:24:55;100688.11;;;2.17;91.71
49709;BME280;35601;55.902;13.606;2024-02-14T09:27:20;100687.46;;;2.09;91.52
49709;BME280;35601;55.902;13.606;2024-02-14T09:29:46;100683.87;;;2.38;91.73
49709;BME280;35601;55.902;13.606;2024-02-14T09:32:12;100677.44;;;2.24;90.85
49709;BME280;35601;55.902;13.606;2024-02-14T09:34:37;100676.21;;;2.68;90.68
49709;BME280;35601;55.902;13.606;2024-02-14T09:37:02;100679.61;;;2.74;89.86
49709;BME280;35601;55.902;13.606;2024-02-14T09:39:27;100682.59;;;2.62;90.44
49709;BME280;35601;55.902;13.606;2024-02-14T09:41:58;100685.30;;;2.63;89.71
49709;BME280;35601;55.902;13.606;2024-02-14T09:44:18;100682.87;;;2.63;88.79
49709;BME280;35601;55.902;13.606;2024-02-14T09:46:44;100687.26;;;2.73;88.85
49709;BME280;35601;55.902;13.606;2024-02-14T09:49:10;100686.09;;;3.12;88.73
49709;BME280;35601;55.902;13.606;2024-02-14T09:51:35;100685.48;;;3.01;87.89
49709;BME280;35601;55.902;13.606;2024-02-14T09:54:00;100685.13;;;3.26;87.95
49709;BME280;35601;55.902;13.606;2024-02-14T09:56:26;100681.20;;;3.16;87.56
49709;BME280;35601;55.902;13.606;2024-02-14T09:58:51;100684.07;;;3.39;86.72
49709;BME280;35601;55.902;13.606;2024-02-14T10:01:17;100681.70;;;3.10;86.41
49709;BME280;35601;55.902;13.606;2024-02-14T10:03:42;100682.27;;;3.46;86.12
49709;BME280;35601;55.902;13.606;2024-02-14T10:06:07;100683.30;;;3.56;86.22
49709;BME280;35601;55.902;13.606;2024-02-14T10:08:32;100684.73;;;3.38;85.84
49709;BME280;35601;55.902;13.606;2024-02-14T10:10:58;100684.47;;;3.40;86.52
49709;BME280;35601;55.902;13.606;2024-02-14T10:13:26;100684.08;;;3.36;86.34
49709;BME280;35601;55.902;13.606;2024-02-14T10:15:49;100683.98;;;3.13;87.45
49709;BME280;35601;55.902;13.606;2024-02-14T10:18:14;100688.11;;;3.10;88.00
49709;BME280;35601;55.902;13.606;2024-02-14T10:20:40;100689.30;;;2.92;89.18
49709;BME280;35601;55.902;13.606;2024-02-14T10:23:05;100688.33;;;3.04;88.32
49709;BME280;35601;55.902;13.606;2024-02-14T10:25:34;100690.42;;;3.11;87.88
49709;BME280;35601;55.902;13.606;2024-02-14T10:27:56;100689.20;;;3.15;87.92
49709;BME280;35601;55.902;13.606;2024-02-14T10:30:22;100693.04;;;2.97;86.69
49709;BME280;35601;55.902;13.606;2024-02-14T10:32:48;100690.39;;;3.39;87.17
49709;BME280;35601;55.902;13.606;2024-02-14T10:35:15;100695.41;;;3.33;87.33
49709;BME280;35601;55.902;13.606;2024-02-14T10:37:39;100694.42;;;3.80;86.57
49709;BME280;35601;55.902;13.606;2024-02-14T10:40:05;100693.55;;;3.34;85.85
49709;BME280;35601;55.902;13.606;2024-02-14T10:42:29;100687.56;;;3.44;85.11
49709;BME280;35601;55.902;13.606;2024-02-14T10:44:55;100683.14;;;3.11;84.58
49709;BME280;35601;55.902;13.606;2024-02-14T10:47:24;100682.40;;;3.47;84.82
49709;BME280;35601;55.902;13.606;2024-02-14T10:49:48;100679.63;;;3.27;84.03
49709;BME280;35601;55.902;13.606;2024-02-14T10:52:11;100680.88;;;3.32;83.44
49709;BME280;35601;55.902;13.606;2024-02-14T10:54:37;100686.45;;;3.53;83.14
49709;BME280;35601;55.902;13.606;2024-02-14T10:57:06;100689.88;;;3.65;83.78
49709;BME280;35601;55.902;13.606;2024-02-14T10:59:27;100692.73;;;3.72;83.17
49709;BME280;35601;55.902;13.606;2024-02-14T11:01:52;100690.60;;;3.69;82.04
49709;BME280;35601;55.902;13.606;2024-02-14T11:04:17;100688.03;;;3.46;80.83
49709;BME280;35601;55.902;13.606;2024-02-14T11:06:45;100687.97;;;3.25;80.92
49709;BME280;35601;55.902;13.606;2024-02-14T11:09:12;100689.21;;;2.66;81.25
49709;BME280;35601;55.902;13.606;2024-02-14T11:11:34;100688.83;;;2.81;82.22
49709;BME280;35601;55.902;13.606;2024-02-14T11:13:59;100689.07;;;2.42;82.28
49709;BME280;35601;55.902;13.606;2024-02-14T11:16:26;100689.76;;;2.44;82.33
49709;BME280;35601;55.902;13.606;2024-02-14T11:18:50;100684.89;;;2.47;82.92
49709;BME280;35601;55.902;13.606;2024-02-14T11:21:16;100679.35;;;2.59;83.23
49709;BME280;35601;55.902;13.606;2024-02-14T11:23:40;100677.50;;;2.88;83.10
49709;BME280;35601;55.902;13.606;2024-02-14T11:26:06;100679.12;;;3.12;83.66
49709;BME280;35601;55.902;13.606;2024-02-14T11:28:36;100679.64;;;2.97;83.14
49709;BME280;35601;55.902;13.606;2024-02-14T11:31:00;100679.03;;;2.79;83.28
49709;BME280;35601;55.902;13.606;2024-02-14T11:33:24;100677.59;;;2.77;83.17
49709;BME280;35601;55.902;13.606;2024-02-14T11:35:48;100674.75;;;2.61;82.45
49709;BME280;35601;55.902;13.606;2024-02-14T11:38:13;100674.65;;;2.81;83.66
49709;BME280;35601;55.902;13.606;2024-02-14T11:40:38;100672.19;;;2.85;84.05
49709;BME280;35601;55.902;13.606;2024-02-14T11:43:04;100670.10;;;2.76;85.05
49709;BME280;35601;55.902;13.606;2024-02-14T11:45:30;100673.06;;;2.28;85.43
49709;BME280;35601;55.902;13.606;2024-02-14T11:47:55;100671.19;;;2.54;84.87
49709;BME280;35601;55.902;13.606;2024-02-14T11:50:20;100667.66;;;2.65;85.36
49709;BME280;35601;55.902;13.606;2024-02-14T11:52:45;100666.32;;;2.64;86.32
49709;BME280;35601;55.902;13.606;2024-02-14T11:55:11;100664.01;;;2.77;85.61
49709;BME280;35601;55.902;13.606;2024-02-14T11:57:36;100661.61;;;2.90;85.64
49709;BME280;35601;55.902;13.606;2024-02-14T12:00:01;100659.93;;;3.13;84.98
49709;BME280;35601;55.902;13.606;2024-02-14T12:02:26;100658.23;;;3.16;83.47
49709;BME280;35601;55.902;13.606;2024-02-14T12:04:52;100661.61;;;3.05;83.82
49709;BME280;35601;55.902;13.606;2024-02-14T12:07:17;100660.94;;;3.15;83.25
49709;BME280;35601;55.902;13.606;2024-02-14T12:09:42;100664.47;;;3.05;83.87
49709;BME280;35601;55.902;13.606;2024-02-14T12:12:07;100659.86;;;2.41;84.77
49709;BME280;35601;55.902;13.606;2024-02-14T12:14:32;100658.35;;;2.49;85.63
49709;BME280;35601;55.902;13.606;2024-02-14T12:17:00;100655.03;;;2.46;85.76
49709;BME280;35601;55.902;13.606;2024-02-14T12:19:23;100648.98;;;2.85;85.40
49709;BME280;35601;55.902;13.606;2024-02-14T12:21:48;100644.28;;;2.63;84.62
49709;BME280;35601;55.902;13.606;2024-02-14T12:24:14;100646.42;;;2.58;85.23
49709;BME280;35601;55.902;13.606;2024-02-14T12:26:39;100645.46;;;2.77;85.59
49709;BME280;35601;55.902;13.606;2024-02-14T12:29:04;100645.48;;;2.72;85.99
49709;BME280;35601;55.902;13.606;2024-02-14T12:31:30;100644.43;;;2.64;86.40
49709;BME280;35601;55.902;13.606;2024-02-14T12:33:55;100644.16;;;2.65;85.89
49709;BME280;35601;55.902;13.606;2024-02-14T12:36:21;100647.01;;;3.02;86.36
49709;BME280;35601;55.902;13.606;2024-02-14T12:38:46;100646.97;;;2.36;86.53